Aspermont, Texas
Current Conditions -  °F | °C
As of 6:15 AM on Wednesday 28 Jan 2015 (Local Time) from KSWW Reporting Station
Clear Clear  
Wind Chill: 55°   Ceiling: Unl
Heat Index: 55°   Visibility: 10mi
Dew Point: 34°   Wind: 13mph
Humidity: 45%   Direction: 210°SSW
Pressure: 30.14"   Gusts: NA
Location:  33.13°N, 100.23°W
Report Text: KSWW 281215Z AUTO 21011KT 10SM CLR 13/01 A3014 RMK AO2 T01300012
Loading
Personal Weather Stations






























Interactive Weather Map New forecast layout! Learn more

10-Day Weather Forecast

Advertisements
Track Severe Weather on mobile